AirNav   Duncan Aviation - Near you to keep you flying
 
 803 users online  

11AL ECH Stagefield Army Heliport
Fort Rucker/Ozark, Alabama, USA

GOING TO FORT RUCKER/OZARK?


FAA INFORMATION EFFECTIVE 08 SEPTEMBER 2022

Location

FAA Identifier: 11AL
Lat/Long: 31-23-37.3000N 085-45-05.4000W
31-23.621667N 085-45.090000W
31.3936944,-85.7515000
(estimated)
Elevation: 268 ft. / 82 m (estimated)
Variation: 02W (2000)
From city: 6 miles SW of central business district of the associated city
Time zone: UTC -5 (UTC -6 during Standard Time)
Zip code: 36362

Heliport Operations

Heliport use: Private use. Permission required prior to landing
Activation date: 05/2002
Control tower: no
ARTCC: JACKSONVILLE CENTER
FSS: ANNISTON FLIGHT SERVICE STATION
NOTAMs facility: OZR (NOTAM-D service available)
Attendance: ATTENDED DURG SKED TRNG.
FOR TRNG DAYS/HRS CTC AT&T OFFICER AT 334-255-9764.
Segmented circle: no

Heliport Communications

OPS: 126.2
WX AWOS-3PT at EDN (9 nm SW): 118.9 (334-347-3524)
WX ASOS at DHN (16 nm E): PHONE 334-983-5999

Nearby radio navigation aids

VOR radial/distance  VOR name  Freq  Var
HEYr286/(5.2)HANCHEY VOR110.6003W
OZRr353/7.6CAIRNS VOR/DME111.2003W
EDNr056/(9.7)ENTERPRISE VOR116.6003W
RRSr290/17.7WIREGRASS VORTAC111.6002E

 
NDB name  Hdg/Dist  Freq  Var  ID
LOWE351/2.026903WLOR .-.. --- .-.
HANCHEY285/5.122103WHYE .... -.-- .
RUCKR021/10.621203WOZ --- --..
BOLL WEEVIL078/12.235203WBVG -... ...- --.
BLOOD149/31.936504WTOI - --- ..
JUDD083/33.226402WJUY .--- ..- -.--

Heliport Services

Runway Information

Helipad H1

Dimensions: 1600 x 75 ft. / 488 x 23 m
Surface: asphalt
Traffic pattern: leftleft

Helipad H5

Dimensions: 1600 x 75 ft. / 488 x 23 m
Surface: asphalt
Traffic pattern: leftleft

Helipad H2

Dimensions: 1482 x 75 ft. / 452 x 23 m
Surface: asphalt
Traffic pattern: leftleft

Helipad H3

Dimensions: 1238 x 75 ft. / 377 x 23 m
Surface: asphalt
Traffic pattern: leftleft

Helipad H4

Dimensions: 1000 x 75 ft. / 305 x 23 m
Surface: asphalt
Traffic pattern: leftleft

Heliport Ownership and Management from official FAA records

Ownership: U.S. Army
Owner: US ARMY AVIATION CTR & FORT RUCKER
NOVOSEL ST
FORT RUCKER, AL 36362
Phone 334-255-9764
Manager: JACK HOLMES
USAACE G3 AIR
FORT RUCKER, AL 36362
Phone 334-255-9764

Additional Remarks

FOR CD CTC CAIRNS APCH AT 334-255-8402 OR 334-255-8460, WHEN APCH CLSD CTC JACKSONVILLE ARTCC AT 904-845-1592.

Instrument Procedures

There are no published instrument procedures at 11AL.

Some nearby airports with instrument procedures:

KLOR - Lowe Army Heliport (Fort Rucker) (2 nm S)
KHEY - Hanchey Army Heliport (Fort Rucker) (6 nm SE)
71J - Ozark/Blackwell Field Airport (7 nm E)
KOZR - Cairns Army Airfield (Fort Rucker) (7 nm S)
KEDN - Enterprise Municipal Airport (9 nm SW)
KDHN - Dothan Regional Airport (16 nm E)
 
Loc | Ops | Rwys | IFR | FBO | Links
Com | Nav | Svcs | Stats | Notes
Area around 11AL (ECH Stagefield Army Heliport)
 
Road maps at: MapQuest Bing Google
 
Aerial photo
No photo
 
Sectional chart

 
Airport distance calculator
Flying to ECH Stagefield Army Heliport? Find the distance to fly.

From to 11AL

Sunrise and sunset
Times for 01-Oct-2022
 Local
(UTC-5)
 Zulu
(UTC)
Morning civil twilight06:1311:13
Sunrise06:3811:38
Sunset18:2823:28
Evening civil twilight18:5223:52

Current date and time
Zulu (UTC)  02-Oct-2022 02:18:47
Local (UTC-5)  01-Oct-2022 21:18:47
 
METAR
KLOR 
3nm S 
020155Z AUTO 00000KT 10SM CLR 14/10 A2992 RMK AO2 SLP115 T01410099 $
KSXS 
5nm W 
020155Z AUTO 33006KT 10SM CLR 21/05 A2992 RMK AO2 SLP131 T02050049 TSNO $
KHEY 
6nm SE 
020155Z AUTO 32004KT 10SM CLR 16/10 A2990 RMK AO2 SLP126 T01600103
KOZR 
7nm S 
020155Z AUTO 30005KT 10SM CLR 19/06 A2992 RMK AO2 SLP133 T01850060 $
KEDN 
9nm SW 
020155Z AUTO 00000KT 10SM CLR 16/09 A2993 RMK AO2 T01580094
KDHN 
16nm E 
020153Z AUTO 31005KT 10SM CLR 19/06 A2995 RMK AO2 SLP139 T01940061
TAF
KDHN 
16nm E 
011722Z 0118/0218 31010KT P6SM SKC FM020200 VRB03KT P6SM SKC FM021400 34007KT P6SM SKC
NOTAMs
Click for the latest NOTAMs
NOTAMs are issued by the DoD/FAA and will open in a separate window not controlled by AirNav.

 

 
 

Would you like to see your business listed on this page?

 If your business provides an interesting product or service to pilots, flight crews, aircraft, or users of the ECH Stagefield Army Heliport, you should consider listing it here.  To start the listing process, click on the button below
 
Add a business
 

Other Pages about ECH Stagefield Army Heliport

Update a link
 
Copyright © AirNav, LLC. All rights reserved. Privacy Policy  Contact